Huvudsida
METAR-TAF:

METAR-TAF

Flygplatser :

Venedig Marco Polos flygplats

Venedig, Italien

latitud: 45-30N, longitud: 012-20E, höjd: 2 m

Aktuellt väderrapport

Denna rapport gjordes för 34 minuter sedan, klockan 22:20 UTC
Vind 6 kt från nordost
Temperatur 23°C
Fuktighet 78%
Tryck 1017 hPa
Sikt 10 km eller mer
Inga moln under 1 500 m eller inga cumulonimbus

METAR: LIPZ 252220Z 04006KT CAVOK 23/19 Q1017 NOSIG

Tid: 00:54 (22:54 UTC)

Väderprognos

Denna rapport gjordes för 5 timmar och 54 minuter sedan, klockan 17:00 UTC
Prognos gäller från 25 kl. 18 UTC till 26 kl. 24 UTC
Vind 7 kt från nord/nordost
Sikt 10 km eller mer
Spridda moln på en höjd av 3000 ft
Blir
från 26 kl. 10 UTC till 26 kl. 12 UTC
Vind 10 kt från syd/sydost
Blir
från 26 kl. 17 UTC till 26 kl. 19 UTC
Vind 7 kt från nord/nordost

TAF: LIPZ 251700Z 2518/2624 03007KT 9999 SCT030 BECMG 2610/2612 16010KT BECMG 2617/2619 03007KT

Aktuella väderrapporter och prognoser från 4000 flygplatser (METAR- och TAF-rapporter).

De tillgängliga stationerna syns som gula och röda prickar på kartan.

För musen över prickarna för att se namnen på stationerna.

Klicka sedan för att få väderrapporter och prognoser.

För att ändra kartan: Klicka på de gröna knapparna med ett svart kors på för att zooma in; den gröna knappen med ett streck på för att zooma ut; eller på de gröna pilarna för angränsande kartor.


METAR-TAF: